Time;durP1;ratioP1;P1;durP2;ratioP2;P2;SDS_P1;SDS_P2;PMS_P1;PMS_P2;Temp;Humidity;BMP_temperature;BMP_pressure;BME280_temperature;BME280_humidity;BME280_pressure;Samples;Min_cycle;Max_cycle;Signal;HPM_P1;HPM_P2
2023/08/23 00:00:26;;;;;;;2.70;1.37;;;27.60;52.10;;;;;;2588054;53;20932;-70
2023/08/23 00:02:52;;;;;;;2.70;1.27;;;27.60;52.10;;;;;;2587346;53;20957;-69
2023/08/23 00:05:22;;;;;;;2.80;1.20;;;27.50;52.10;;;;;;2341818;54;21410;-69
2023/08/23 00:07:48;;;;;;;2.95;1.20;;;27.50;52.30;;;;;;2588092;53;20977;-69
2023/08/23 00:10:14;;;;;;;2.83;1.40;;;27.50;52.30;;;;;;2588684;53;20953;-70
2023/08/23 00:12:41;;;;;;;3.20;1.20;;;27.40;52.30;;;;;;2588545;53;20957;-69
2023/08/23 00:15:08;;;;;;;2.75;1.15;;;27.40;52.30;;;;;;2342091;54;20936;-71
2023/08/23 00:17:34;;;;;;;3.37;1.00;;;27.40;52.40;;;;;;2557819;53;21072;-69
2023/08/23 00:20:01;;;;;;;2.85;1.20;;;27.40;52.50;;;;;;2332153;54;21362;-69
2023/08/23 00:22:27;;;;;;;2.40;1.20;;;27.30;52.50;;;;;;2325021;54;20960;-72
2023/08/23 00:24:53;;;;;;;3.03;1.37;;;27.30;52.50;;;;;;2329604;54;20970;-72
2023/08/23 00:27:20;;;;;;;2.60;1.20;;;27.30;52.60;;;;;;2331076;54;20905;-72
2023/08/23 00:29:46;;;;;;;2.30;1.20;;;27.20;52.60;;;;;;2341275;54;21000;-69
2023/08/23 00:32:12;;;;;;;3.30;1.58;;;27.20;52.70;;;;;;2342516;54;21037;-69
2023/08/23 00:34:39;;;;;;;3.10;1.48;;;27.20;53.00;;;;;;2341144;54;21004;-70
2023/08/23 00:37:07;;;;;;;4.87;1.40;;;27.10;53.00;;;;;;2342126;54;21012;-68
2023/08/23 00:39:34;;;;;;;3.50;1.20;;;27.10;53.00;;;;;;2342133;54;20968;-70
2023/08/23 00:42:05;;;;;;;3.87;1.30;;;27.10;53.00;;;;;;2335631;54;21027;-69
2023/08/23 00:44:31;;;;;;;2.72;1.30;;;27.10;53.10;;;;;;2564554;53;20960;-70
2023/08/23 00:46:58;;;;;;;2.97;1.50;;;27.00;53.10;;;;;;2341524;54;21398;-69
2023/08/23 00:49:24;;;;;;;2.90;1.20;;;27.00;53.10;;;;;;2341476;54;20981;-69
2023/08/23 00:51:51;;;;;;;2.80;1.42;;;27.00;53.20;;;;;;2341066;54;20965;-68
2023/08/23 00:54:17;;;;;;;2.08;0.93;;;27.00;53.30;;;;;;2342638;54;20944;-73
2023/08/23 00:56:44;;;;;;;2.10;1.10;;;26.90;53.30;;;;;;2340860;54;21013;-68
2023/08/23 00:59:10;;;;;;;2.85;1.33;;;26.90;53.30;;;;;;2341629;54;20945;-68
2023/08/23 01:01:37;;;;;;;2.72;1.50;;;26.90;53.30;;;;;;2587319;53;20949;-69
2023/08/23 01:04:03;;;;;;;2.15;1.02;;;26.90;53.40;;;;;;2587330;53;21036;-69
2023/08/23 01:06:46;;;;;;;2.40;1.10;;;26.80;53.40;;;;;;2341603;54;20983;-69
2023/08/23 01:09:18;;;;;;;2.20;1.10;;;26.80;53.60;;;;;;2342254;54;21005;-69
2023/08/23 01:12:47;;;;;;;2.42;1.15;;;26.80;53.60;;;;;;2554084;53;21450;-67
2023/08/23 01:15:13;;;;;;;3.00;1.40;;;26.80;53.90;;;;;;2585661;53;21000;-69
2023/08/23 01:17:42;;;;;;;4.10;1.65;;;26.70;53.50;;;;;;2584792;53;20995;-69
2023/08/23 01:20:10;;;;;;;2.30;1.10;;;26.70;53.70;;;;;;2344222;54;20988;-68
2023/08/23 01:22:38;;;;;;;3.53;1.20;;;26.70;53.80;;;;;;2339231;54;20933;-69
2023/08/23 01:25:06;;;;;;;2.37;1.20;;;26.70;54.00;;;;;;2345398;54;20937;-72
2023/08/23 01:27:33;;;;;;;3.20;1.20;;;26.60;53.90;;;;;;2582911;53;20931;-69
2023/08/23 01:30:01;;;;;;;2.87;1.33;;;26.60;54.00;;;;;;2322683;54;20968;-68
2023/08/23 01:32:51;;;;;;;3.33;1.15;;;26.60;54.20;;;;;;2555492;53;20968;-70
2023/08/23 01:35:21;;;;;;;2.10;0.95;;;26.60;54.90;;;;;;2321279;54;21855;-68
2023/08/23 01:37:50;;;;;;;3.70;1.52;;;26.60;54.60;;;;;;2584105;53;20972;-73
2023/08/23 01:40:16;;;;;;;2.67;1.33;;;26.60;54.90;;;;;;2340995;54;20957;-69
2023/08/23 01:42:42;;;;;;;2.92;1.40;;;26.60;55.00;;;;;;2586794;53;21535;-70
2023/08/23 01:45:10;;;;;;;4.00;1.33;;;26.60;54.90;;;;;;2587920;53;21020;-71
2023/08/23 01:47:36;;;;;;;2.67;1.35;;;26.60;54.90;;;;;;2588165;53;20952;-69
2023/08/23 01:50:03;;;;;;;2.45;1.35;;;26.60;55.00;;;;;;2588016;53;20937;-70
2023/08/23 01:52:29;;;;;;;3.00;1.42;;;26.60;55.00;;;;;;2587076;53;20918;-70
2023/08/23 01:54:56;;;;;;;3.65;1.80;;;26.60;55.10;;;;;;2587935;53;20933;-70
2023/08/23 01:57:22;;;;;;;2.70;1.52;;;26.60;55.10;;;;;;2341618;54;21448;-68
2023/08/23 01:59:49;;;;;;;2.80;1.40;;;26.60;55.00;;;;;;2341617;54;20988;-69
2023/08/23 02:02:17;;;;;;;3.17;1.37;;;26.60;55.00;;;;;;2587929;53;21004;-70
2023/08/23 02:04:44;;;;;;;3.67;1.50;;;26.60;55.00;;;;;;2341316;54;21441;-69
2023/08/23 02:07:10;;;;;;;2.97;1.50;;;26.60;55.00;;;;;;2587873;53;21004;-69
2023/08/23 02:09:36;;;;;;;3.05;1.35;;;26.60;55.50;;;;;;2341930;54;20976;-70
2023/08/23 02:12:03;;;;;;;2.25;1.30;;;26.60;54.90;;;;;;2563585;53;20962;-71
2023/08/23 02:14:29;;;;;;;3.17;1.40;;;26.60;54.90;;;;;;2579685;53;20969;-73
2023/08/23 02:16:56;;;;;;;2.87;1.58;;;26.60;55.60;;;;;;2587676;53;21387;-69
2023/08/23 02:19:23;;;;;;;2.95;1.40;;;26.60;55.10;;;;;;2341082;54;20960;-68
2023/08/23 02:21:51;;;;;;;3.20;1.48;;;26.50;55.00;;;;;;2334361;54;21021;-70
2023/08/23 02:24:17;;;;;;;2.90;1.60;;;26.50;55.10;;;;;;2307587;54;21489;-70
2023/08/23 02:26:43;;;;;;;2.55;1.40;;;26.50;55.10;;;;;;2341088;54;21063;-69
2023/08/23 02:29:10;;;;;;;3.03;1.70;;;26.50;55.20;;;;;;2341758;54;20987;-68
2023/08/23 02:31:39;;;;;;;3.10;1.55;;;26.50;55.10;;;;;;2317604;54;21738;-68
2023/08/23 02:34:05;;;;;;;3.83;1.60;;;26.50;55.20;;;;;;2587981;53;20949;-70
2023/08/23 02:36:32;;;;;;;4.43;1.50;;;26.50;55.20;;;;;;2588124;53;20917;-70
2023/08/23 02:39:00;;;;;;;2.80;1.50;;;26.50;55.20;;;;;;2318718;55;20957;-72
2023/08/23 02:41:27;;;;;;;2.33;1.20;;;26.50;55.20;;;;;;2565601;53;20934;-72
2023/08/23 02:43:54;;;;;;;3.00;1.40;;;26.50;55.20;;;;;;2333151;54;20932;-71
2023/08/23 02:46:20;;;;;;;2.45;1.00;;;26.50;55.30;;;;;;2341517;54;20949;-69
2023/08/23 02:48:49;;;;;;;3.00;1.30;;;26.50;55.30;;;;;;2587644;53;20959;-73
2023/08/23 02:51:16;;;;;;;4.15;1.40;;;26.50;55.40;;;;;;2588173;53;20941;-70
2023/08/23 02:53:45;;;;;;;3.15;1.62;;;26.40;55.40;;;;;;2587791;53;21024;-70
2023/08/23 02:56:16;;;;;;;2.50;1.33;;;26.40;55.40;;;;;;2588143;53;20933;-69
2023/08/23 02:58:44;;;;;;;3.28;1.70;;;26.40;55.50;;;;;;2331270;54;20932;-70
2023/08/23 03:01:10;;;;;;;3.95;1.80;;;26.40;55.50;;;;;;2554602;53;20966;-69
2023/08/23 03:03:39;;;;;;;3.30;1.70;;;26.40;55.60;;;;;;2329377;54;20933;-69
2023/08/23 03:06:06;;;;;;;3.25;1.67;;;26.40;55.70;;;;;;2588135;53;20945;-68
2023/08/23 03:08:37;;;;;;;3.50;1.60;;;26.40;55.70;;;;;;2588064;53;20909;-69
2023/08/23 03:11:04;;;;;;;2.85;1.67;;;26.40;55.70;;;;;;2342190;54;21008;-69
2023/08/23 03:13:31;;;;;;;3.70;2.00;;;26.40;55.70;;;;;;2341726;54;20945;-72
2023/08/23 03:15:57;;;;;;;2.97;1.70;;;26.30;55.70;;;;;;2341258;54;21036;-69
2023/08/23 03:18:27;;;;;;;3.35;1.90;;;26.30;56.50;;;;;;2587701;53;21841;-69
2023/08/23 03:20:53;;;;;;;2.87;1.40;;;26.30;55.90;;;;;;2587542;53;20956;-69
2023/08/23 03:23:22;;;;;;;3.45;1.40;;;26.40;55.90;;;;;;2341597;54;20945;-69
2023/08/23 03:25:49;;;;;;;2.97;1.67;;;26.30;55.90;;;;;;2341580;54;21499;-69
2023/08/23 03:28:21;;;;;;;3.28;1.80;;;26.30;55.90;;;;;;2341505;54;20996;-67
2023/08/23 03:30:47;;;;;;;3.30;1.70;;;26.30;56.00;;;;;;2341484;54;21016;-70
2023/08/23 03:33:15;;;;;;;2.72;1.48;;;26.30;55.90;;;;;;2340734;54;21009;-69
2023/08/23 03:35:42;;;;;;;3.78;1.67;;;26.30;55.90;;;;;;2318359;54;21026;-74
2023/08/23 03:38:08;;;;;;;2.72;1.52;;;26.30;56.00;;;;;;2341474;54;20963;-69
2023/08/23 03:40:41;;;;;;;3.33;1.83;;;26.30;56.00;;;;;;2333039;54;20997;-72
2023/08/23 03:43:08;;;;;;;3.85;1.80;;;26.30;56.10;;;;;;2329009;54;20969;-69
2023/08/23 03:45:34;;;;;;;3.53;1.83;;;26.20;56.00;;;;;;2587970;53;21497;-70
2023/08/23 03:48:00;;;;;;;3.97;1.35;;;26.30;56.00;;;;;;2341519;54;20960;-70
2023/08/23 03:50:27;;;;;;;5.12;1.80;;;26.30;56.00;;;;;;2341723;54;21774;-68
2023/08/23 03:52:54;;;;;;;3.05;1.40;;;26.20;56.00;;;;;;2341069;54;20972;-71
2023/08/23 03:55:20;;;;;;;3.75;1.52;;;26.20;55.90;;;;;;2587427;53;20921;-70
2023/08/23 03:57:46;;;;;;;2.97;1.40;;;26.20;56.00;;;;;;2341771;54;20956;-72
2023/08/23 04:00:15;;;;;;;2.62;1.60;;;26.20;56.00;;;;;;2342378;54;21064;-72
2023/08/23 04:02:43;;;;;;;4.28;2.00;;;26.20;56.00;;;;;;2587809;53;20937;-70
2023/08/23 04:05:11;;;;;;;3.20;1.30;;;26.10;55.90;;;;;;2341024;54;21038;-70
2023/08/23 04:07:39;;;;;;;3.08;1.55;;;26.10;55.90;;;;;;2587496;53;20941;-69
2023/08/23 04:10:06;;;;;;;3.10;1.48;;;26.10;55.90;;;;;;2342379;54;20972;-68
2023/08/23 04:12:32;;;;;;;3.12;1.60;;;26.00;56.00;;;;;;2588176;53;20956;-69
2023/08/23 04:15:02;;;;;;;3.40;1.40;;;26.00;56.00;;;;;;2583585;53;21042;-68
2023/08/23 04:17:29;;;;;;;3.10;1.52;;;26.00;56.10;;;;;;2587292;53;20981;-71
2023/08/23 04:19:55;;;;;;;2.85;1.45;;;25.90;56.10;;;;;;2341255;54;20964;-69
2023/08/23 04:22:23;;;;;;;2.67;1.42;;;25.90;56.20;;;;;;2587531;53;21024;-68
2023/08/23 04:24:49;;;;;;;3.40;1.70;;;25.90;56.20;;;;;;2340752;54;20989;-69
2023/08/23 04:27:16;;;;;;;2.78;1.83;;;25.90;56.30;;;;;;2587251;53;20964;-70
2023/08/23 04:29:42;;;;;;;3.70;1.67;;;25.90;56.40;;;;;;2341769;54;23081;-70
2023/08/23 04:32:12;;;;;;;3.70;1.98;;;25.80;56.40;;;;;;2341268;54;20933;-69
2023/08/23 04:34:38;;;;;;;2.78;1.50;;;25.80;56.40;;;;;;2343005;54;20933;-69
2023/08/23 04:37:07;;;;;;;2.72;1.58;;;25.80;56.40;;;;;;2317456;55;21008;-69
2023/08/23 04:39:33;;;;;;;3.20;1.70;;;25.80;56.40;;;;;;2342025;54;21040;-70
2023/08/23 04:42:01;;;;;;;3.47;1.73;;;25.80;56.40;;;;;;2587415;53;20945;-69
2023/08/23 04:44:29;;;;;;;3.08;1.70;;;25.70;56.40;;;;;;2340980;54;20960;-69
2023/08/23 04:46:55;;;;;;;3.30;2.05;;;25.70;56.50;;;;;;2338008;54;21001;-69
2023/08/23 04:49:21;;;;;;;3.65;1.80;;;25.70;56.60;;;;;;2322611;54;21468;-70
2023/08/23 04:51:48;;;;;;;3.12;1.67;;;25.70;56.70;;;;;;2336021;54;21868;-69
2023/08/23 04:54:14;;;;;;;2.87;1.60;;;25.70;56.70;;;;;;2341531;54;20929;-71
2023/08/23 04:56:40;;;;;;;4.00;1.85;;;25.70;56.60;;;;;;2587705;53;20940;-68
2023/08/23 04:59:07;;;;;;;3.15;1.98;;;25.70;56.60;;;;;;2341589;54;20952;-68
2023/08/23 05:01:34;;;;;;;3.10;1.70;;;25.60;56.50;;;;;;2341584;54;21045;-69
2023/08/23 05:04:00;;;;;;;3.45;1.85;;;25.60;56.60;;;;;;2587705;53;21052;-69
2023/08/23 05:06:27;;;;;;;2.78;1.70;;;25.60;56.60;;;;;;2587256;53;20952;-69
2023/08/23 05:08:53;;;;;;;3.10;1.70;;;25.60;56.60;;;;;;2341410;54;20921;-70
2023/08/23 05:11:19;;;;;;;3.62;2.28;;;25.50;56.70;;;;;;2341753;54;21008;-69
2023/08/23 05:13:46;;;;;;;2.75;1.80;;;25.50;56.80;;;;;;2587691;53;21459;-69
2023/08/23 05:16:12;;;;;;;3.33;1.80;;;25.50;56.90;;;;;;2341764;54;21041;-69
2023/08/23 05:18:39;;;;;;;3.00;1.67;;;25.50;56.90;;;;;;2588018;53;20984;-70
2023/08/23 05:21:09;;;;;;;3.40;1.80;;;25.50;57.00;;;;;;2342702;54;21367;-69
2023/08/23 05:23:35;;;;;;;2.92;1.62;;;25.50;57.10;;;;;;2341726;54;21328;-70
2023/08/23 05:26:02;;;;;;;3.58;1.77;;;25.40;57.00;;;;;;2341728;54;21024;-70
2023/08/23 05:28:30;;;;;;;3.15;1.83;;;25.40;57.10;;;;;;2341756;54;20937;-72
2023/08/23 05:30:57;;;;;;;3.55;1.90;;;25.30;57.00;;;;;;2341478;54;20973;-68
2023/08/23 05:33:24;;;;;;;2.60;1.70;;;25.40;57.70;;;;;;2341833;54;20948;-69
2023/08/23 05:35:50;;;;;;;3.10;1.77;;;25.40;57.20;;;;;;2341596;54;20932;-70
2023/08/23 05:38:19;;;;;;;4.22;1.83;;;25.40;57.20;;;;;;2587687;53;21029;-70
2023/08/23 05:40:47;;;;;;;4.05;1.75;;;25.40;57.20;;;;;;2339852;54;21016;-68
2023/08/23 05:43:13;;;;;;;3.12;1.83;;;25.40;57.30;;;;;;2342834;54;20992;-69
2023/08/23 05:45:40;;;;;;;2.97;1.75;;;25.30;57.20;;;;;;2587242;53;20933;-70
2023/08/23 05:48:08;;;;;;;6.15;2.45;;;25.30;57.30;;;;;;2587533;53;20977;-67
2023/08/23 05:50:37;;;;;;;3.35;2.15;;;25.30;57.40;;;;;;2587752;53;21774;-69
2023/08/23 05:53:09;;;;;;;6.00;2.12;;;25.30;57.50;;;;;;2587188;53;21859;-71
2023/08/23 05:55:36;;;;;;;;;;;25.30;57.60;;;;;;2592170;53;20973;-70
2023/08/23 05:58:02;;;;;;;3.33;1.80;;;25.40;58.40;;;;;;2341654;54;20071;-70
2023/08/23 06:00:29;;;;;;;3.42;1.95;;;25.30;57.40;;;;;;2342003;54;21496;-69
2023/08/23 06:02:55;;;;;;;3.45;1.87;;;25.40;57.50;;;;;;2341781;54;21453;-68
2023/08/23 06:05:23;;;;;;;3.12;1.70;;;25.40;57.60;;;;;;2588015;53;20985;-68
2023/08/23 06:07:50;;;;;;;3.30;1.87;;;25.40;57.50;;;;;;2587464;53;21406;-73
2023/08/23 06:10:16;;;;;;;4.25;2.22;;;25.40;57.50;;;;;;2588472;53;21032;-67
2023/08/23 06:12:42;;;;;;;3.83;2.20;;;25.40;57.60;;;;;;2341815;54;20969;-68
2023/08/23 06:15:09;;;;;;;3.58;2.03;;;25.40;57.60;;;;;;2588163;53;20997;-70
2023/08/23 06:17:36;;;;;;;3.28;2.08;;;25.40;57.60;;;;;;2341543;54;20969;-70
2023/08/23 06:20:04;;;;;;;4.45;2.45;;;25.50;57.70;;;;;;2587707;53;20937;-73
2023/08/23 06:22:34;;;;;;;4.57;2.13;;;25.50;57.70;;;;;;2463606;53;1298101;-68
2023/08/23 06:25:00;;;;;;;6.85;2.55;;;25.50;57.80;;;;;;2341582;54;20936;-69
2023/08/23 06:27:37;;;;;;;3.17;2.08;;;25.50;57.80;;;;;;2341370;54;20961;-68
2023/08/23 06:30:07;;;;;;;4.10;2.20;;;25.50;57.90;;;;;;2588152;53;21025;-69
2023/08/23 06:32:33;;;;;;;3.62;2.22;;;25.50;57.90;;;;;;2559616;53;20954;-69
2023/08/23 06:35:00;;;;;;;5.45;2.28;;;25.50;57.80;;;;;;2583094;53;21474;-69
2023/08/23 06:37:26;;;;;;;4.37;2.42;;;25.60;57.80;;;;;;2341369;54;21040;-67
2023/08/23 06:39:52;;;;;;;3.80;1.92;;;25.60;57.80;;;;;;2586016;53;20956;-68
2023/08/23 06:42:19;;;;;;;4.30;2.30;;;25.60;57.80;;;;;;2541474;54;21531;-69
2023/08/23 06:44:47;;;;;;;4.95;2.28;;;25.60;57.90;;;;;;2312257;55;21049;-69
2023/08/23 06:47:13;;;;;;;5.50;2.30;;;25.70;58.00;;;;;;2332335;54;21070;-69
2023/08/23 06:49:39;;;;;;;3.87;2.60;;;25.70;58.00;;;;;;2312747;54;21033;-69
2023/08/23 06:52:07;;;;;;;4.70;2.40;;;25.70;58.00;;;;;;2568778;53;21020;-69
2023/08/23 06:54:34;;;;;;;6.50;2.35;;;25.80;58.10;;;;;;2341582;54;21037;-69
2023/08/23 06:57:00;;;;;;;4.10;2.40;;;25.80;58.00;;;;;;2343773;54;20953;-68
2023/08/23 06:59:27;;;;;;;4.43;2.22;;;25.80;58.00;;;;;;2316709;55;20953;-70
2023/08/23 07:01:53;;;;;;;4.07;2.40;;;25.80;57.90;;;;;;2587256;53;20988;-69
2023/08/23 07:04:22;;;;;;;3.70;2.10;;;25.90;57.90;;;;;;2324932;54;21014;-69
2023/08/23 07:06:48;;;;;;;4.03;2.40;;;25.90;58.00;;;;;;2335646;54;21012;-70
2023/08/23 07:09:16;;;;;;;3.72;2.37;;;25.90;57.90;;;;;;2342357;54;20989;-69
2023/08/23 07:11:42;;;;;;;4.55;2.20;;;26.00;58.00;;;;;;2341642;54;21049;-69
2023/08/23 07:14:09;;;;;;;4.68;2.42;;;26.00;58.00;;;;;;2587888;53;20937;-70
2023/08/23 07:16:35;;;;;;;3.83;2.70;;;26.00;57.90;;;;;;2341865;54;20964;-69
2023/08/23 07:19:02;;;;;;;4.35;2.58;;;26.10;57.90;;;;;;2341691;54;21023;-69
2023/08/23 07:21:29;;;;;;;5.03;2.60;;;26.10;58.00;;;;;;2341969;54;21017;-69
2023/08/23 07:23:57;;;;;;;3.65;2.28;;;26.20;58.00;;;;;;2330706;54;21023;-69
2023/08/23 07:26:24;;;;;;;3.30;2.40;;;26.20;58.00;;;;;;2329590;54;21888;-69
2023/08/23 07:28:50;;;;;;;4.93;2.40;;;26.20;57.80;;;;;;2318328;55;21504;-69
2023/08/23 07:31:16;;;;;;;4.07;2.25;;;26.30;57.80;;;;;;2341912;54;21004;-69
2023/08/23 07:33:43;;;;;;;3.80;2.40;;;26.30;57.80;;;;;;2341624;54;20903;-69
2023/08/23 07:36:09;;;;;;;4.05;2.35;;;26.30;57.80;;;;;;2588004;53;20960;-69
2023/08/23 07:38:36;;;;;;;4.20;2.05;;;26.30;57.80;;;;;;2584642;53;20929;-69
2023/08/23 07:41:03;;;;;;;4.32;2.72;;;26.30;57.70;;;;;;2317032;54;20992;-69
2023/08/23 07:43:29;;;;;;;4.95;2.78;;;26.40;57.90;;;;;;2587103;53;20988;-67
2023/08/23 07:46:02;;;;;;;4.97;2.58;;;26.40;57.90;;;;;;2588010;53;21947;-70
2023/08/23 07:48:29;;;;;;;7.43;2.87;;;26.40;57.90;;;;;;2588100;53;20928;-69
2023/08/23 07:50:56;;;;;;;5.12;2.78;;;26.50;58.10;;;;;;2587950;53;21501;-71
2023/08/23 07:53:24;;;;;;;4.28;2.50;;;26.50;58.10;;;;;;2341222;54;20960;-73
2023/08/23 07:55:51;;;;;;;4.62;2.70;;;26.60;58.00;;;;;;2588230;53;20949;-69
2023/08/23 07:58:19;;;;;;;3.75;2.37;;;26.60;58.00;;;;;;2338325;54;21925;-73
2023/08/23 08:00:45;;;;;;;5.82;3.22;;;26.60;57.90;;;;;;2341243;54;21042;-69
2023/08/23 08:03:11;;;;;;;4.00;2.40;;;26.70;58.10;;;;;;2583007;53;20953;-68
2023/08/23 08:05:39;;;;;;;4.07;2.70;;;26.70;58.20;;;;;;2312440;54;21041;-68
2023/08/23 08:08:06;;;;;;;3.50;2.22;;;26.70;58.10;;;;;;2566901;53;21414;-69
2023/08/23 08:10:34;;;;;;;4.28;2.70;;;26.70;58.10;;;;;;2587604;53;21501;-70
2023/08/23 08:13:00;;;;;;;4.32;2.75;;;26.80;58.10;;;;;;2342196;54;21000;-70
2023/08/23 08:15:31;;;;;;;4.22;2.60;;;26.80;58.10;;;;;;2587205;53;21061;-69
2023/08/23 08:17:57;;;;;;;4.07;2.70;;;26.80;58.20;;;;;;2342043;54;21394;-70
2023/08/23 08:20:24;;;;;;;4.30;2.50;;;26.90;58.20;;;;;;2587794;53;21083;-70
2023/08/23 08:22:51;;;;;;;4.95;2.53;;;27.00;58.30;;;;;;2341860;54;21327;-68
2023/08/23 08:25:18;;;;;;;4.22;2.42;;;27.00;58.20;;;;;;2341613;54;20934;-70
2023/08/23 08:27:45;;;;;;;4.43;2.55;;;27.10;58.20;;;;;;2341754;54;21005;-68
2023/08/23 08:30:13;;;;;;;5.30;2.62;;;27.10;58.20;;;;;;2317018;55;21031;-70
2023/08/23 08:32:39;;;;;;;5.12;2.97;;;27.20;58.20;;;;;;2587719;53;20945;-69
2023/08/23 08:35:09;;;;;;;5.15;3.12;;;27.20;58.00;;;;;;2588069;53;21728;-70
2023/08/23 08:37:38;;;;;;;4.03;2.67;;;27.20;57.90;;;;;;2343260;54;20993;-69
2023/08/23 08:40:08;;;;;;;4.50;2.70;;;27.30;57.90;;;;;;2587716;53;21757;-72
2023/08/23 08:42:35;;;;;;;5.05;2.65;;;27.30;57.90;;;;;;2587533;53;20965;-72
2023/08/23 08:45:05;;;;;;;3.62;2.62;;;27.40;57.90;;;;;;2588347;53;20940;-70
2023/08/23 08:47:44;;;;;;;5.60;2.58;;;27.40;57.90;;;;;;2343077;54;20952;-71
2023/08/23 08:50:11;;;;;;;4.45;2.50;;;27.50;57.90;;;;;;2341027;54;21826;-70
2023/08/23 08:52:38;;;;;;;5.28;2.70;;;27.50;57.80;;;;;;2587712;53;20973;-72
2023/08/23 08:55:08;;;;;;;4.28;2.33;;;27.60;57.80;;;;;;2570166;53;21034;-71
2023/08/23 08:57:34;;;;;;;4.07;2.25;;;27.60;57.80;;;;;;2306836;54;20952;-70
2023/08/23 09:00:01;;;;;;;5.62;2.90;;;27.70;57.80;;;;;;2341022;54;20992;-68
2023/08/23 09:02:27;;;;;;;8.40;2.37;;;27.70;57.80;;;;;;2341311;54;21012;-69
2023/08/23 09:04:53;;;;;;;4.57;2.85;;;27.80;57.90;;;;;;2585772;53;21077;-69
2023/08/23 09:07:20;;;;;;;5.00;2.60;;;27.80;57.80;;;;;;2587643;53;20932;-71
2023/08/23 09:09:50;;;;;;;4.25;2.85;;;27.80;57.70;;;;;;2341877;54;21784;-70
2023/08/23 09:12:16;;;;;;;5.45;3.00;;;27.90;57.70;;;;;;2587958;53;20962;-72
2023/08/23 09:14:48;;;;;;;3.55;2.45;;;28.00;57.70;;;;;;2586748;53;21024;-69
2023/08/23 09:17:15;;;;;;;3.97;2.40;;;28.00;57.60;;;;;;2340839;54;21001;-69
2023/08/23 09:19:42;;;;;;;4.80;2.30;;;28.00;57.40;;;;;;2342473;54;21059;-71
2023/08/23 09:22:09;;;;;;;4.47;2.92;;;28.10;57.50;;;;;;2340794;54;20932;-69
2023/08/23 09:24:37;;;;;;;3.75;2.72;;;28.10;57.50;;;;;;2341062;54;21821;-70
2023/08/23 09:27:05;;;;;;;4.20;2.62;;;28.10;57.40;;;;;;2341414;54;20936;-68
2023/08/23 09:29:31;;;;;;;4.47;2.47;;;28.20;57.40;;;;;;2587797;53;20916;-70
2023/08/23 09:32:04;;;;;;;4.15;2.60;;;28.20;57.40;;;;;;2312884;55;21649;-70
2023/08/23 09:34:31;;;;;;;5.10;2.72;;;28.30;57.40;;;;;;2320012;55;21440;-70
2023/08/23 09:37:07;;;;;;;4.97;2.45;;;28.40;57.40;;;;;;2559782;53;20963;-69
2023/08/23 09:39:35;;;;;;;4.32;2.75;;;28.40;57.30;;;;;;2301542;55;20989;-72
2023/08/23 09:42:04;;;;;;;3.95;2.70;;;28.50;57.40;;;;;;2580053;53;20988;-70
2023/08/23 09:44:30;;;;;;;5.07;2.40;;;28.60;57.30;;;;;;2343506;54;21631;-70
2023/08/23 09:46:59;;;;;;;6.50;2.67;;;28.60;57.80;;;;;;2311231;55;20944;-72
2023/08/23 09:49:27;;;;;;;4.07;2.37;;;28.70;57.20;;;;;;2326662;54;20988;-70
2023/08/23 09:51:54;;;;;;;3.70;2.33;;;28.70;57.10;;;;;;2587420;53;21569;-69
2023/08/23 09:54:24;;;;;;;5.22;2.90;;;28.80;57.10;;;;;;2586923;53;21416;-70
2023/08/23 09:57:02;;;;;;;5.80;2.72;;;28.90;56.90;;;;;;2588099;53;20925;-69
2023/08/23 09:59:29;;;;;;;5.93;2.60;;;29.00;56.80;;;;;;2587830;53;20965;-72
2023/08/23 10:01:56;;;;;;;3.42;2.33;;;29.10;56.70;;;;;;2342005;54;20921;-70
2023/08/23 10:04:24;;;;;;;3.40;2.20;;;29.10;56.50;;;;;;2341608;54;20917;-72
2023/08/23 10:06:52;;;;;;;4.20;2.35;;;29.10;56.50;;;;;;2587545;53;21053;-69
2023/08/23 10:09:18;;;;;;;3.45;2.10;;;29.20;56.40;;;;;;2340541;54;20988;-70
2023/08/23 10:11:45;;;;;;;5.03;2.33;;;29.30;56.30;;;;;;2341228;54;21012;-69
2023/08/23 10:14:18;;;;;;;6.65;2.53;;;29.30;56.20;;;;;;2340950;54;20949;-70
2023/08/23 10:16:45;;;;;;;3.80;2.67;;;29.40;56.10;;;;;;2586948;53;21057;-69
2023/08/23 10:19:11;;;;;;;3.87;2.42;;;29.50;56.00;;;;;;2341399;54;21020;-70
2023/08/23 10:21:37;;;;;;;4.25;2.47;;;29.50;55.90;;;;;;2341368;54;21339;-68
2023/08/23 10:24:04;;;;;;;3.83;2.37;;;29.50;55.70;;;;;;2333025;54;21056;-69
2023/08/23 10:26:43;;;;;;;3.70;2.35;;;29.60;55.80;;;;;;2569054;53;20964;-70
2023/08/23 10:29:10;;;;;;;4.47;2.80;;;29.70;55.40;;;;;;2587111;53;21474;-72
2023/08/23 10:31:50;;;;;;;4.12;2.30;;;29.70;55.30;;;;;;2580846;53;21025;-71
2023/08/23 10:34:32;;;;;;;5.32;2.22;;;29.80;55.40;;;;;;2342203;54;21727;-72
2023/08/23 10:37:00;;;;;;;3.72;2.30;;;29.90;55.20;;;;;;2587437;53;20996;-70
2023/08/23 10:39:27;;;;;;;4.70;2.47;;;29.90;55.10;;;;;;2341326;54;21874;-70
2023/08/23 10:41:56;;;;;;;3.45;2.00;;;29.90;55.00;;;;;;2340860;54;21899;-70
2023/08/23 10:44:23;;;;;;;3.70;2.30;;;30.00;55.00;;;;;;2340458;54;21080;-71
2023/08/23 10:46:51;;;;;;;5.15;2.53;;;30.00;54.90;;;;;;2587730;53;20933;-70
2023/08/23 10:49:20;;;;;;;3.50;2.40;;;30.10;54.70;;;;;;2587071;53;20956;-69
2023/08/23 10:51:47;;;;;;;5.05;2.55;;;30.20;54.30;;;;;;2587377;53;21648;-70
2023/08/23 10:54:14;;;;;;;6.65;2.47;;;30.20;54.60;;;;;;2341070;54;20913;-69
2023/08/23 10:56:40;;;;;;;3.53;2.50;;;30.20;54.50;;;;;;2341682;54;20996;-70
2023/08/23 10:59:07;;;;;;;4.53;2.40;;;30.30;54.30;;;;;;2310309;54;21856;-70
2023/08/23 11:01:39;;;;;;;3.75;2.00;;;30.30;54.20;;;;;;2309884;54;20944;-71
2023/08/23 11:04:07;;;;;;;5.93;2.50;;;30.30;54.30;;;;;;2549429;54;20940;-71
2023/08/23 11:06:33;;;;;;;4.20;2.15;;;30.40;54.30;;;;;;2548011;54;20935;-69
2023/08/23 11:09:01;;;;;;;3.47;2.12;;;30.50;54.30;;;;;;2310121;54;20979;-71
2023/08/23 11:11:28;;;;;;;4.32;2.45;;;30.50;54.20;;;;;;2548337;54;21015;-70
2023/08/23 11:13:54;;;;;;;3.47;2.10;;;30.60;54.40;;;;;;2548633;54;20983;-70
2023/08/23 11:16:21;;;;;;;4.03;2.50;;;30.60;54.40;;;;;;2308158;54;20975;-70
2023/08/23 11:18:50;;;;;;;4.60;2.30;;;30.70;54.40;;;;;;2309101;54;21452;-72
2023/08/23 11:21:17;;;;;;;3.50;2.30;;;30.70;54.20;;;;;;2308172;54;21024;-71
2023/08/23 11:23:47;;;;;;;3.20;1.77;;;30.80;54.20;;;;;;2308891;55;21011;-71
2023/08/23 11:26:14;;;;;;;4.53;1.98;;;30.90;53.80;;;;;;2264759;55;21015;-70
2023/08/23 11:28:40;;;;;;;5.50;2.10;;;30.90;53.80;;;;;;2309310;54;20993;-70
2023/08/23 11:31:08;;;;;;;3.72;2.12;;;31.00;53.70;;;;;;2333572;54;20960;-69
2023/08/23 11:33:37;;;;;;;3.20;2.08;;;31.10;53.70;;;;;;2340200;54;22512;-70
2023/08/23 11:36:04;;;;;;;4.57;2.50;;;31.10;53.40;;;;;;2587891;53;20965;-71
2023/08/23 11:38:30;;;;;;;3.22;1.87;;;31.10;53.20;;;;;;2567036;53;20935;-73
2023/08/23 11:40:58;;;;;;;3.33;2.20;;;31.20;53.00;;;;;;2331165;54;20953;-74
2023/08/23 11:43:32;;;;;;;4.15;2.08;;;31.30;52.90;;;;;;2587062;53;21033;-71
2023/08/23 11:45:59;;;;;;;4.90;2.60;;;31.30;52.40;;;;;;2341852;54;20997;-70
2023/08/23 11:48:25;;;;;;;3.08;1.98;;;31.30;52.30;;;;;;2585811;53;20948;-71
2023/08/23 11:50:52;;;;;;;4.65;2.00;;;31.40;52.20;;;;;;2587934;53;20945;-70
2023/08/23 11:53:18;;;;;;;3.92;2.35;;;31.40;52.10;;;;;;2586882;53;20932;-69
2023/08/23 11:55:48;;;;;;;3.72;1.75;;;31.50;51.90;;;;;;2588345;53;21679;-70
2023/08/23 11:58:14;;;;;;;4.45;1.83;;;31.50;51.60;;;;;;2341722;54;21001;-70
2023/08/23 12:00:42;;;;;;;3.03;1.75;;;31.50;51.50;;;;;;2564667;53;21712;-70
2023/08/23 12:03:10;;;;;;;3.40;2.03;;;31.50;51.40;;;;;;2547692;54;21585;-73
2023/08/23 12:05:37;;;;;;;2.97;1.95;;;31.60;51.30;;;;;;2316829;55;21050;-73
2023/08/23 12:08:03;;;;;;;3.65;1.70;;;31.60;51.30;;;;;;2341987;54;21000;-69
2023/08/23 12:10:30;;;;;;;3.37;1.65;;;31.60;51.20;;;;;;2341300;54;20955;-70
2023/08/23 12:12:56;;;;;;;2.80;1.60;;;31.60;50.90;;;;;;2341789;54;20968;-71
2023/08/23 12:15:22;;;;;;;3.80;1.92;;;31.60;50.80;;;;;;2340945;54;20957;-72
2023/08/23 12:17:49;;;;;;;3.47;1.80;;;31.70;50.90;;;;;;2342028;54;21019;-72
2023/08/23 12:20:16;;;;;;;3.30;1.77;;;31.70;50.50;;;;;;2341887;54;20905;-69
2023/08/23 12:22:46;;;;;;;2.72;1.60;;;31.70;50.30;;;;;;2341618;54;20984;-71
2023/08/23 12:25:13;;;;;;;4.03;1.80;;;31.80;50.30;;;;;;2588618;53;20928;-72
2023/08/23 12:27:39;;;;;;;3.00;1.75;;;31.80;50.20;;;;;;2341622;54;20968;-72
2023/08/23 12:30:09;;;;;;;3.60;1.70;;;31.80;50.80;;;;;;2587911;53;21028;-70
2023/08/23 12:32:35;;;;;;;3.58;1.80;;;31.80;50.20;;;;;;2341715;54;20980;-71
2023/08/23 12:35:04;;;;;;;3.00;1.80;;;31.90;50.30;;;;;;2319207;54;21028;-71
2023/08/23 12:37:30;;;;;;;2.50;1.60;;;31.90;50.40;;;;;;2587919;53;20989;-72
2023/08/23 12:39:56;;;;;;;3.53;1.77;;;32.00;50.40;;;;;;2587885;53;20969;-71
2023/08/23 12:42:23;;;;;;;3.10;1.58;;;32.00;50.30;;;;;;2341592;54;20984;-69
2023/08/23 12:44:49;;;;;;;3.37;1.70;;;32.10;50.30;;;;;;2587919;53;20945;-71
2023/08/23 12:47:15;;;;;;;2.53;1.50;;;32.10;50.00;;;;;;2587617;53;21072;-71
2023/08/23 12:49:42;;;;;;;4.53;1.67;;;32.10;49.90;;;;;;2587898;53;20992;-71